Time;durP1;ratioP1;P1;durP2;ratioP2;P2;SDS_P1;SDS_P2;PMS_P1;PMS_P2;Temp;Humidity;BMP_temperature;BMP_pressure;BME280_temperature;BME280_humidity;BME280_pressure;Samples;Min_cycle;Max_cycle;Signal;HPM_P1;HPM_P2
2023/06/09 00:00:41;;;;;;;23.45;21.73;;;17.50;99.90;;;;;;5184644;28;20038;-72
2023/06/09 00:03:12;;;;;;;25.08;22.92;;;17.40;99.90;;;;;;5185758;28;20383;-72
2023/06/09 00:05:43;;;;;;;25.25;23.15;;;17.20;99.90;;;;;;5185832;28;20096;-72
2023/06/09 00:08:14;;;;;;;24.98;22.77;;;17.40;99.90;;;;;;5185756;28;20025;-70
2023/06/09 00:10:45;;;;;;;34.42;21.40;;;17.50;99.90;;;;;;5185730;28;20100;-71
2023/06/09 00:13:17;;;;;;;24.27;22.15;;;17.60;99.90;;;;;;5186068;28;20026;-72
2023/06/09 00:15:48;;;;;;;25.40;23.08;;;17.60;99.90;;;;;;5185808;28;20030;-72
2023/06/09 00:18:19;;;;;;;27.20;25.02;;;17.50;99.90;;;;;;5185762;28;20029;-71
2023/06/09 00:20:50;;;;;;;28.33;25.80;;;17.70;99.90;;;;;;5185673;28;20061;-72
2023/06/09 00:23:21;;;;;;;28.90;26.45;;;17.70;99.90;;;;;;5185675;28;20037;-71
2023/06/09 00:25:52;;;;;;;33.95;26.20;;;17.70;99.90;;;;;;5167902;28;20371;-71
2023/06/09 00:28:23;;;;;;;28.77;26.33;;;17.70;99.90;;;;;;5185595;28;20022;-72
2023/06/09 00:30:54;;;;;;;26.88;24.75;;;17.80;99.90;;;;;;5185146;28;20050;-71
2023/06/09 00:33:25;;;;;;;26.80;24.63;;;17.90;99.90;;;;;;5185530;28;20052;-72
2023/06/09 00:35:55;;;;;;;28.40;25.83;;;17.90;99.90;;;;;;5185308;28;20096;-72
2023/06/09 00:38:27;;;;;;;102.65;44.65;;;17.90;99.90;;;;;;5185415;28;20026;-72
2023/06/09 00:40:57;;;;;;;30.25;24.98;;;18.00;99.90;;;;;;5167646;28;20108;-71
2023/06/09 00:43:28;;;;;;;27.20;24.77;;;18.00;99.90;;;;;;5185490;28;20100;-70
2023/06/09 00:46:05;;;;;;;24.88;22.75;;;18.00;99.90;;;;;;5185374;28;20022;-71
2023/06/09 00:48:36;;;;;;;28.17;25.83;;;18.00;99.90;;;;;;5185369;28;20473;-72
2023/06/09 00:51:07;;;;;;;27.25;25.02;;;18.00;99.90;;;;;;5167497;28;20497;-72
2023/06/09 00:53:38;;;;;;;26.63;24.52;;;18.00;99.90;;;;;;5185189;28;20053;-72
2023/06/09 00:56:09;;;;;;;26.35;24.05;;;18.00;99.90;;;;;;5185211;28;20058;-71
2023/06/09 00:58:40;;;;;;;26.67;24.80;;;18.00;99.90;;;;;;5185180;28;20076;-72
2023/06/09 01:01:11;;;;;;;27.63;25.63;;;18.00;99.90;;;;;;5185043;28;20482;-72
2023/06/09 01:03:42;;;;;;;39.38;22.83;;;18.00;99.90;;;;;;5185113;28;20029;-72
2023/06/09 01:06:43;;;;;;;54.38;49.30;;;18.00;99.90;;;;;;5167565;28;20022;-72
2023/06/09 01:09:34;;;;;;;21.67;19.58;;;18.00;99.90;;;;;;5176509;28;20046;-71
2023/06/09 01:12:23;;;;;;;21.85;19.85;;;18.10;99.90;;;;;;5185876;28;20033;-71
2023/06/09 01:15:00;;;;;;;21.42;19.55;;;18.10;99.90;;;;;;5188996;28;20026;-72
2023/06/09 01:17:32;;;;;;;23.02;20.75;;;18.10;99.90;;;;;;5188954;28;20038;-72
2023/06/09 01:20:05;;;;;;;21.95;20.02;;;18.10;99.90;;;;;;5188901;28;20370;-71
2023/06/09 01:22:52;;;;;;;23.30;20.15;;;18.20;99.90;;;;;;5188887;28;20041;-72
2023/06/09 01:25:27;;;;;;;23.65;21.33;;;18.20;99.90;;;;;;5189264;28;20029;-72
2023/06/09 01:28:03;;;;;;;35.90;21.67;;;18.10;99.90;;;;;;5171465;28;20109;-71
2023/06/09 01:30:36;;;;;;;53.92;25.35;;;18.20;99.90;;;;;;5188541;28;20133;-70
2023/06/09 01:33:17;;;;;;;37.97;28.63;;;18.10;99.90;;;;;;5188764;28;20030;-72
2023/06/09 01:35:49;;;;;;;29.33;22.98;;;18.20;99.90;;;;;;5188683;28;20033;-72
2023/06/09 01:38:22;;;;;;;50.00;26.80;;;18.20;99.90;;;;;;5171079;28;20490;-72
2023/06/09 01:40:53;;;;;;;152.88;54.72;;;18.20;99.90;;;;;;5188589;28;20088;-72
2023/06/09 01:43:25;;;;;;;19.98;18.08;;;18.20;99.90;;;;;;5188388;28;20017;-72
2023/06/09 01:45:56;;;;;;;38.90;19.15;;;18.20;99.90;;;;;;5188404;28;20029;-72
2023/06/09 01:48:39;;;;;;;20.98;19.02;;;18.20;99.90;;;;;;5188527;28;20092;-71
2023/06/09 01:51:24;;;;;;;20.73;18.42;;;18.10;99.90;;;;;;5188391;28;20448;-71
2023/06/09 01:54:18;;;;;;;58.38;33.28;;;18.20;99.90;;;;;;5188424;28;20028;-72
2023/06/09 01:57:02;;;;;;;19.52;17.90;;;18.20;99.90;;;;;;5188223;28;20034;-71
2023/06/09 01:59:46;;;;;;;19.65;18.15;;;18.20;99.90;;;;;;5188088;28;20037;-71
2023/06/09 02:02:20;;;;;;;33.17;22.45;;;18.20;99.90;;;;;;5188090;28;20049;-72
2023/06/09 02:04:53;;;;;;;20.65;18.75;;;18.20;99.90;;;;;;5188033;28;20030;-72
2023/06/09 02:07:24;;;;;;;55.00;19.70;;;18.20;99.90;;;;;;5188085;28;20108;-71
2023/06/09 02:09:55;;;;;;;38.67;23.60;;;18.20;99.90;;;;;;5188040;28;20026;-71
2023/06/09 02:12:34;;;;;;;21.52;19.67;;;18.20;99.90;;;;;;5187976;28;20030;-72
2023/06/09 02:15:06;;;;;;;22.88;20.75;;;18.20;99.90;;;;;;5187745;28;20034;-71
2023/06/09 02:17:39;;;;;;;23.92;21.52;;;18.10;99.90;;;;;;5187798;28;20364;-72
2023/06/09 02:20:22;;;;;;;45.60;22.83;;;18.10;99.90;;;;;;5187768;28;20065;-71
2023/06/09 02:22:59;;;;;;;31.75;26.35;;;18.20;99.90;;;;;;5187683;28;20386;-71
2023/06/09 02:25:40;;;;;;;21.02;19.35;;;18.10;99.90;;;;;;5186922;28;20087;-71
2023/06/09 02:28:16;;;;;;;27.55;20.88;;;18.10;99.90;;;;;;5187605;28;20018;-71
2023/06/09 02:30:50;;;;;;;20.05;18.35;;;18.00;99.90;;;;;;5187043;28;20054;-71
2023/06/09 02:33:24;;;;;;;23.25;21.17;;;18.10;99.90;;;;;;5187553;28;20026;-71
2023/06/09 02:35:55;;;;;;;81.70;37.63;;;18.20;99.90;;;;;;5170008;28;20378;-72
2023/06/09 02:38:26;;;;;;;54.55;38.38;;;18.10;99.90;;;;;;5187816;28;20026;-71
2023/06/09 02:40:57;;;;;;;24.25;22.15;;;18.10;99.90;;;;;;5187649;28;20030;-71
2023/06/09 02:43:28;;;;;;;19.60;17.63;;;18.10;99.90;;;;;;5187587;28;20029;-70
2023/06/09 02:45:59;;;;;;;37.38;25.10;;;18.20;99.90;;;;;;5187322;28;20031;-70
2023/06/09 02:48:30;;;;;;;21.65;17.73;;;18.40;99.90;;;;;;5187433;28;20119;-71
2023/06/09 02:51:01;;;;;;;28.50;23.65;;;18.40;99.90;;;;;;5187324;28;20072;-71
2023/06/09 02:53:32;;;;;;;22.85;20.75;;;18.40;99.90;;;;;;5187211;28;20029;-71
2023/06/09 02:56:03;;;;;;;31.88;29.05;;;18.40;99.90;;;;;;5187083;28;20045;-72
2023/06/09 02:58:34;;;;;;;23.40;21.67;;;18.50;99.90;;;;;;5187098;28;20026;-71
2023/06/09 03:01:07;;;;;;;22.98;21.02;;;18.50;99.90;;;;;;5186926;28;20445;-72
2023/06/09 03:03:38;;;;;;;24.88;22.83;;;18.50;99.90;;;;;;5187053;28;20030;-72
2023/06/09 03:06:09;;;;;;;23.25;21.15;;;18.50;99.90;;;;;;5186907;28;20508;-71
2023/06/09 03:08:40;;;;;;;26.92;24.60;;;18.50;99.90;;;;;;5187019;28;20026;-71
2023/06/09 03:11:11;;;;;;;23.77;21.75;;;18.50;99.90;;;;;;5187009;28;20378;-72
2023/06/09 03:13:42;;;;;;;21.95;19.83;;;18.60;99.90;;;;;;5186777;28;20025;-71
2023/06/09 03:16:13;;;;;;;21.50;19.73;;;18.60;99.90;;;;;;5186805;28;20160;-72
2023/06/09 03:18:44;;;;;;;24.92;22.83;;;18.60;99.90;;;;;;5169090;28;20340;-72
2023/06/09 03:21:17;;;;;;;25.55;23.38;;;18.60;99.90;;;;;;5186488;28;20050;-71
2023/06/09 03:23:47;;;;;;;22.15;20.30;;;18.60;99.90;;;;;;5186481;28;20025;-71
2023/06/09 03:26:18;;;;;;;19.75;17.95;;;18.70;99.90;;;;;;5186491;28;20028;-72
2023/06/09 03:28:49;;;;;;;20.98;19.30;;;18.70;99.90;;;;;;5186319;28;20041;-71
2023/06/09 03:31:20;;;;;;;19.45;17.98;;;18.70;99.90;;;;;;5186244;28;20053;-71
2023/06/09 03:33:51;;;;;;;19.17;17.48;;;18.70;99.90;;;;;;5186222;28;20036;-72
2023/06/09 03:36:22;;;;;;;21.45;19.77;;;18.70;99.90;;;;;;5186071;28;20038;-71
2023/06/09 03:38:54;;;;;;;17.73;15.80;;;18.70;99.90;;;;;;5186127;28;20018;-72
2023/06/09 03:41:25;;;;;;;19.23;16.02;;;18.70;99.90;;;;;;5186287;28;20034;-72
2023/06/09 03:43:55;;;;;;;17.98;16.13;;;18.70;99.90;;;;;;5186228;28;20014;-70
2023/06/09 03:46:26;;;;;;;21.90;19.92;;;18.70;99.90;;;;;;5168035;28;20080;-70
2023/06/09 03:48:57;;;;;;;22.70;20.92;;;18.70;99.90;;;;;;5185874;28;20048;-70
2023/06/09 03:51:28;;;;;;;33.33;30.60;;;18.70;99.90;;;;;;5186001;28;20447;-70
2023/06/09 03:53:59;;;;;;;26.13;24.10;;;18.70;99.90;;;;;;5185664;28;20498;-69
2023/06/09 03:56:30;;;;;;;24.63;22.63;;;18.70;99.90;;;;;;5185226;28;20046;-70
2023/06/09 03:59:01;;;;;;;22.65;18.45;;;18.70;99.90;;;;;;5186063;28;20022;-70
2023/06/09 04:01:32;;;;;;;27.05;24.40;;;18.70;99.90;;;;;;5185687;28;20029;-70
2023/06/09 04:04:02;;;;;;;12.80;8.13;;;18.80;99.90;;;;;;5185934;28;20034;-71
2023/06/09 04:06:35;;;;;;;20.88;19.25;;;18.90;99.90;;;;;;5185025;28;20076;-70
2023/06/09 04:09:06;;;;;;;19.55;8.52;;;18.90;99.90;;;;;;5186011;28;20136;-70
2023/06/09 04:11:37;;;;;;;16.40;13.55;;;18.90;99.90;;;;;;5168115;28;20096;-70
2023/06/09 04:14:09;;;;;;;21.38;19.42;;;18.90;99.90;;;;;;5185696;28;20026;-70
2023/06/09 04:16:41;;;;;;;17.17;15.73;;;18.80;99.90;;;;;;5185702;28;20038;-70
2023/06/09 04:19:12;;;;;;;18.27;16.70;;;18.80;99.90;;;;;;5185541;28;20030;-69
2023/06/09 04:21:43;;;;;;;100.15;46.15;;;18.80;99.90;;;;;;5185645;28;20336;-70
2023/06/09 04:24:14;;;;;;;14.13;8.77;;;18.80;99.90;;;;;;5185679;28;20118;-69
2023/06/09 04:26:47;;;;;;;17.38;15.93;;;18.80;99.90;;;;;;5185749;28;20152;-70
2023/06/09 04:29:22;;;;;;;11.27;9.38;;;18.80;99.90;;;;;;5185347;28;20036;-70
2023/06/09 04:31:58;;;;;;;19.13;16.65;;;18.90;99.90;;;;;;5185181;28;20046;-70
2023/06/09 04:34:38;;;;;;;20.25;18.33;;;18.90;99.90;;;;;;5167944;28;20490;-70
2023/06/09 04:37:09;;;;;;;14.07;10.77;;;18.90;99.90;;;;;;5185488;28;20037;-70
2023/06/09 04:39:45;;;;;;;18.98;17.10;;;19.00;99.90;;;;;;5185393;28;20584;-70
2023/06/09 04:42:19;;;;;;;12.75;11.50;;;19.00;99.90;;;;;;5185528;28;20022;-70
2023/06/09 04:44:50;;;;;;;17.10;15.38;;;19.20;99.90;;;;;;5185377;28;20034;-70
2023/06/09 04:47:24;;;;;;;17.67;16.08;;;19.10;99.90;;;;;;5186438;28;20102;-70
2023/06/09 04:49:55;;;;;;;13.38;7.45;;;19.20;99.90;;;;;;5171968;28;20117;-69
2023/06/09 04:52:26;;;;;;;14.95;13.38;;;19.20;99.90;;;;;;5189555;28;20541;-70
2023/06/09 04:54:57;;;;;;;73.40;24.00;;;19.30;99.90;;;;;;5189608;28;20036;-70
2023/06/09 04:57:28;;;;;;;17.85;15.65;;;19.20;99.90;;;;;;5189902;28;20425;-70
2023/06/09 05:00:13;;;;;;;11.30;9.40;;;19.30;99.90;;;;;;5189559;28;20018;-70
2023/06/09 05:02:44;;;;;;;16.17;9.40;;;19.30;99.90;;;;;;5189516;28;20038;-70
2023/06/09 05:05:15;;;;;;;9.82;8.05;;;19.40;99.90;;;;;;5189316;28;20029;-70
2023/06/09 05:07:46;;;;;;;74.65;16.55;;;19.40;99.90;;;;;;5189325;28;20025;-70
2023/06/09 05:10:17;;;;;;;15.68;12.70;;;19.50;99.90;;;;;;5189370;28;20141;-70
2023/06/09 05:12:49;;;;;;;27.25;11.07;;;19.50;99.90;;;;;;5189117;28;20026;-70
2023/06/09 05:15:21;;;;;;;10.13;8.15;;;19.50;99.90;;;;;;5189153;28;20033;-70
2023/06/09 05:17:52;;;;;;;12.10;7.97;;;19.60;99.90;;;;;;5189316;28;20591;-70
2023/06/09 05:20:23;;;;;;;19.13;16.40;;;19.70;99.90;;;;;;5189000;28;20014;-70
2023/06/09 05:22:54;;;;;;;14.00;9.32;;;19.80;99.90;;;;;;5189012;28;20024;-70
2023/06/09 05:25:25;;;;;;;17.55;10.80;;;19.90;99.90;;;;;;5188955;28;20022;-70
2023/06/09 05:27:56;;;;;;;12.52;6.68;;;19.80;99.90;;;;;;5188847;28;20022;-70
2023/06/09 05:30:27;;;;;;;219.82;108.10;;;20.00;99.90;;;;;;5188514;28;20482;-70
2023/06/09 05:32:57;;;;;;;9.93;8.88;;;20.00;99.90;;;;;;5171188;28;20033;-70
2023/06/09 05:35:28;;;;;;;11.63;10.73;;;20.00;99.90;;;;;;5188785;28;20022;-70
2023/06/09 05:37:59;;;;;;;16.92;11.05;;;20.00;99.90;;;;;;5188600;28;20041;-70
2023/06/09 05:40:30;;;;;;;12.35;8.20;;;20.10;99.90;;;;;;5188637;28;20033;-69
2023/06/09 05:43:01;;;;;;;18.33;16.80;;;20.20;99.90;;;;;;5188556;28;20026;-70
2023/06/09 05:45:32;;;;;;;10.60;9.07;;;20.20;99.90;;;;;;5171048;28;20481;-70
2023/06/09 05:48:03;;;;;;;9.88;8.80;;;20.20;99.90;;;;;;5188549;28;20508;-70
2023/06/09 05:50:34;;;;;;;13.13;11.98;;;20.30;99.90;;;;;;5188557;28;20466;-70
2023/06/09 05:53:05;;;;;;;15.02;11.75;;;20.40;99.90;;;;;;5188344;28;20030;-70
2023/06/09 05:55:36;;;;;;;12.82;10.43;;;20.40;99.90;;;;;;5188343;28;20029;-70
2023/06/09 05:58:07;;;;;;;15.93;7.63;;;20.50;99.90;;;;;;5187943;28;20026;-70
2023/06/09 06:00:38;;;;;;;10.95;9.77;;;20.50;99.90;;;;;;5188064;28;20026;-70
2023/06/09 06:03:10;;;;;;;16.52;15.13;;;20.50;99.90;;;;;;5188027;28;20025;-70
2023/06/09 06:05:41;;;;;;;9.93;7.47;;;20.60;99.90;;;;;;5188244;28;20026;-71
2023/06/09 06:08:12;;;;;;;9.00;6.30;;;20.70;99.90;;;;;;5187985;28;20029;-69
2023/06/09 06:10:42;;;;;;;14.63;6.70;;;20.70;99.90;;;;;;5188198;28;20033;-70
2023/06/09 06:13:13;;;;;;;9.73;7.03;;;20.70;99.90;;;;;;5188256;28;20033;-70
2023/06/09 06:15:45;;;;;;;9.32;8.32;;;20.80;99.90;;;;;;5188201;28;20030;-69
2023/06/09 06:18:16;;;;;;;5.78;5.20;;;20.80;99.90;;;;;;5188107;28;20048;-70
2023/06/09 06:20:47;;;;;;;11.02;9.73;;;20.90;99.90;;;;;;5187999;28;20482;-70
2023/06/09 06:23:18;;;;;;;11.07;10.05;;;21.20;99.90;;;;;;5187991;28;20033;-70
2023/06/09 06:25:49;;;;;;;15.85;14.52;;;21.10;99.90;;;;;;5187888;28;20075;-69
2023/06/09 06:28:21;;;;;;;11.27;10.02;;;21.00;99.90;;;;;;5187717;28;20033;-70
2023/06/09 06:30:52;;;;;;;11.23;9.68;;;21.10;99.90;;;;;;5187344;28;20503;-70
2023/06/09 06:33:23;;;;;;;11.32;10.30;;;21.20;99.90;;;;;;5187668;28;20048;-70
2023/06/09 06:35:54;;;;;;;13.13;9.55;;;21.20;99.90;;;;;;5187492;28;20556;-70
2023/06/09 06:38:25;;;;;;;9.02;6.38;;;21.40;99.90;;;;;;5187705;28;20088;-70
2023/06/09 06:40:56;;;;;;;12.00;10.80;;;21.50;99.90;;;;;;5187466;28;20022;-70
2023/06/09 06:43:27;;;;;;;14.50;13.18;;;21.50;99.90;;;;;;5187498;28;20018;-70
2023/06/09 06:45:58;;;;;;;14.60;13.23;;;21.50;99.90;;;;;;5187615;28;20466;-70
2023/06/09 06:48:28;;;;;;;11.55;10.25;;;21.50;99.90;;;;;;5187305;28;20033;-69
2023/06/09 06:50:59;;;;;;;10.55;9.45;;;21.50;99.90;;;;;;5187292;28;20037;-70
2023/06/09 06:53:30;;;;;;;13.25;11.07;;;21.50;99.90;;;;;;5187291;28;20026;-70
2023/06/09 06:56:01;;;;;;;12.10;8.50;;;21.60;99.90;;;;;;5187097;28;20048;-70
2023/06/09 06:58:32;;;;;;;10.30;9.30;;;21.90;99.90;;;;;;5186972;28;20022;-70
2023/06/09 07:01:04;;;;;;;10.63;8.82;;;22.10;99.90;;;;;;5186812;28;20521;-69
2023/06/09 07:03:35;;;;;;;10.63;8.15;;;22.20;99.90;;;;;;5187030;28;20022;-69
2023/06/09 07:06:08;;;;;;;14.05;12.93;;;22.40;99.90;;;;;;5187014;28;20385;-70
2023/06/09 07:08:39;;;;;;;18.25;16.83;;;22.20;99.90;;;;;;5186874;28;20034;-70
2023/06/09 07:11:10;;;;;;;14.23;13.10;;;22.50;99.90;;;;;;5186287;28;20044;-70
2023/06/09 07:13:41;;;;;;;14.00;12.50;;;22.40;99.90;;;;;;5186827;28;20466;-68
2023/06/09 07:16:12;;;;;;;9.27;8.45;;;22.40;99.90;;;;;;5186672;28;20038;-70
2023/06/09 07:18:43;;;;;;;10.65;9.75;;;22.30;99.90;;;;;;5186810;28;20022;-70
2023/06/09 07:21:14;;;;;;;10.18;9.18;;;22.40;99.90;;;;;;5186558;28;20044;-70
2023/06/09 07:23:45;;;;;;;10.20;9.20;;;22.30;99.90;;;;;;5169448;28;20060;-70
2023/06/09 07:26:16;;;;;;;10.90;9.90;;;22.30;99.90;;;;;;5186825;28;20054;-70
2023/06/09 07:28:47;;;;;;;10.88;10.07;;;22.20;99.90;;;;;;5186594;28;20093;-70
2023/06/09 07:31:18;;;;;;;10.60;9.32;;;22.10;99.90;;;;;;5186271;28;20049;-70
2023/06/09 07:33:49;;;;;;;10.90;8.52;;;22.10;99.90;;;;;;5186533;28;20036;-70
2023/06/09 07:36:20;;;;;;;9.82;8.93;;;22.30;99.90;;;;;;5186471;28;20795;-70
2023/06/09 07:38:50;;;;;;;10.20;9.30;;;22.10;99.90;;;;;;5186418;28;20022;-70
2023/06/09 07:41:22;;;;;;;8.68;7.85;;;22.40;99.90;;;;;;5186324;28;20057;-70
2023/06/09 07:43:52;;;;;;;10.15;9.32;;;22.40;99.90;;;;;;5168734;28;20489;-70
2023/06/09 07:46:23;;;;;;;9.82;9.02;;;22.60;99.90;;;;;;5168554;28;20121;-70
2023/06/09 07:48:54;;;;;;;14.38;13.32;;;22.80;99.90;;;;;;5186194;28;20137;-70
2023/06/09 07:51:26;;;;;;;15.50;14.25;;;22.70;99.90;;;;;;5186047;28;20061;-70
2023/06/09 07:53:57;;;;;;;26.08;24.02;;;23.00;99.90;;;;;;5186064;28;20087;-70
2023/06/09 07:56:28;;;;;;;36.67;34.25;;;22.90;99.90;;;;;;5185920;28;20038;-70
2023/06/09 07:58:59;;;;;;;29.35;27.35;;;23.20;99.90;;;;;;5185915;28;20105;-71
2023/06/09 08:01:30;;;;;;;25.92;24.25;;;23.20;99.90;;;;;;5185777;28;20065;-70
2023/06/09 08:04:04;;;;;;;17.35;15.88;;;23.30;99.90;;;;;;5185924;28;20104;-70
2023/06/09 08:06:34;;;;;;;14.65;13.35;;;23.40;99.90;;;;;;5185810;28;20079;-70
2023/06/09 08:09:06;;;;;;;11.63;10.73;;;23.30;99.90;;;;;;5185904;28;20401;-70
2023/06/09 08:11:38;;;;;;;9.70;8.80;;;23.50;99.90;;;;;;5185780;28;20025;-70
2023/06/09 08:14:09;;;;;;;10.48;9.57;;;23.30;99.90;;;;;;5185851;28;20482;-70
2023/06/09 08:16:41;;;;;;;10.02;9.13;;;23.30;99.90;;;;;;5185729;28;20133;-70
2023/06/09 08:19:12;;;;;;;9.55;8.50;;;23.20;99.90;;;;;;5185679;28;20456;-70
2023/06/09 08:21:43;;;;;;;10.23;8.70;;;23.30;99.90;;;;;;5184809;28;20478;-70
2023/06/09 08:24:16;;;;;;;8.95;8.15;;;22.90;99.90;;;;;;5185712;28;20037;-69
2023/06/09 08:26:48;;;;;;;7.78;6.65;;;23.40;99.90;;;;;;5185522;28;20025;-70
2023/06/09 08:29:19;;;;;;;9.52;8.60;;;23.40;99.90;;;;;;5185578;28;20030;-69
2023/06/09 08:31:50;;;;;;;6.93;5.80;;;23.10;99.90;;;;;;5185215;28;20080;-70
2023/06/09 08:34:21;;;;;;;8.98;8.07;;;23.40;99.90;;;;;;5185695;28;20026;-70
2023/06/09 08:36:51;;;;;;;6.85;6.00;;;23.50;99.90;;;;;;5185495;28;20040;-70
2023/06/09 08:39:22;;;;;;;7.40;6.55;;;23.40;99.90;;;;;;5168115;28;20370;-70
2023/06/09 08:41:55;;;;;;;7.85;6.65;;;23.30;99.90;;;;;;5185995;28;20018;-70
2023/06/09 08:44:27;;;;;;;6.70;6.13;;;23.00;99.90;;;;;;5185692;28;20031;-70
2023/06/09 08:47:02;;;;;;;6.97;6.10;;;23.20;99.90;;;;;;5185555;28;20026;-70
2023/06/09 08:49:34;;;;;;;7.78;5.85;;;23.40;99.90;;;;;;5185532;28;20109;-70
2023/06/09 08:52:05;;;;;;;7.03;5.97;;;23.60;99.90;;;;;;5185476;28;20088;-70
2023/06/09 08:54:37;;;;;;;6.38;5.45;;;23.50;99.90;;;;;;5185532;28;20026;-69
2023/06/09 08:57:09;;;;;;;6.97;5.55;;;23.20;99.90;;;;;;5185213;28;20089;-70
2023/06/09 08:59:41;;;;;;;6.60;5.55;;;23.70;99.90;;;;;;5185374;28;20033;-70
2023/06/09 09:02:12;;;;;;;6.53;5.78;;;23.50;99.90;;;;;;5185414;28;20029;-70
2023/06/09 09:04:43;;;;;;;8.52;5.55;;;23.30;99.90;;;;;;5185479;28;20026;-70
2023/06/09 09:07:14;;;;;;;7.93;5.97;;;23.90;99.90;;;;;;5185273;28;20474;-70
2023/06/09 09:09:45;;;;;;;6.50;6.00;;;23.80;99.90;;;;;;5185338;28;20041;-70
2023/06/09 09:12:16;;;;;;;456.35;29.30;;;24.20;99.90;;;;;;5185328;28;20434;-70
2023/06/09 09:14:47;;;;;;;7.55;6.88;;;24.00;99.90;;;;;;5167594;28;20472;-70
2023/06/09 09:17:18;;;;;;;11.25;6.00;;;23.70;99.90;;;;;;5185142;28;20042;-70
2023/06/09 09:19:49;;;;;;;7.43;5.88;;;23.50;99.90;;;;;;5185086;28;20532;-70
2023/06/09 09:22:20;;;;;;;7.07;6.18;;;23.60;99.90;;;;;;5167532;28;20041;-70
2023/06/09 09:24:51;;;;;;;8.80;5.97;;;23.80;99.90;;;;;;5185154;28;20021;-70
2023/06/09 09:27:22;;;;;;;6.60;6.00;;;24.10;99.90;;;;;;5184981;28;20366;-70
2023/06/09 09:29:53;;;;;;;7.13;6.53;;;24.30;99.90;;;;;;5184782;28;20084;-70
2023/06/09 09:32:27;;;;;;;8.40;7.57;;;23.80;99.90;;;;;;5167343;28;20502;-70
2023/06/09 09:34:58;;;;;;;9.38;7.90;;;23.80;99.90;;;;;;5188271;28;20061;-70
2023/06/09 09:37:31;;;;;;;7.15;6.53;;;23.80;99.90;;;;;;5188755;28;20038;-70
2023/06/09 09:40:02;;;;;;;8.95;6.50;;;23.60;99.90;;;;;;5188806;28;20025;-70
2023/06/09 09:42:33;;;;;;;8.30;7.47;;;24.10;99.90;;;;;;5188618;28;20029;-70
2023/06/09 09:45:05;;;;;;;9.35;6.88;;;24.00;99.90;;;;;;5188640;28;20026;-70
2023/06/09 09:59:22;;;;;;;9.02;5.45;;;23.90;99.90;;;;;;5307519;27;20961;-68
2023/06/09 10:01:55;;;;;;;7.40;6.20;;;23.80;99.90;;;;;;5307473;28;20023;-69
2023/06/09 10:04:27;;;;;;;7.30;6.70;;;24.00;99.90;;;;;;5307404;28;20027;-69
2023/06/09 10:07:03;;;;;;;8.63;6.90;;;24.00;99.90;;;;;;5307257;28;20016;-69
2023/06/09 10:09:34;;;;;;;11.73;6.72;;;24.40;99.90;;;;;;5289038;28;20024;-70
2023/06/09 10:12:07;;;;;;;8.50;6.88;;;24.30;99.90;;;;;;5307219;28;20011;-69
2023/06/09 10:14:37;;;;;;;7.70;6.78;;;24.30;99.90;;;;;;5307170;28;20020;-69
2023/06/09 10:17:09;;;;;;;9.23;6.97;;;24.00;99.90;;;;;;5307135;28;20069;-68
2023/06/09 10:19:41;;;;;;;6.97;6.38;;;24.00;99.90;;;;;;5306920;28;20031;-70
2023/06/09 10:22:13;;;;;;;6.63;5.00;;;24.20;99.90;;;;;;5307159;28;20377;-69
2023/06/09 10:24:46;;;;;;;7.30;6.60;;;24.20;99.90;;;;;;5307046;28;20058;-70
2023/06/09 10:27:17;;;;;;;6.53;5.93;;;24.30;99.90;;;;;;5306656;28;20019;-70
2023/06/09 10:29:48;;;;;;;8.52;5.93;;;24.00;99.90;;;;;;5306857;28;20031;-70
2023/06/09 10:32:24;;;;;;;9.02;7.22;;;24.80;99.90;;;;;;5306762;28;20090;-69
2023/06/09 10:34:57;;;;;;;9.13;8.27;;;24.60;99.90;;;;;;5306819;28;20535;-68
2023/06/09 10:37:33;;;;;;;10.13;5.13;;;23.90;99.90;;;;;;5306731;28;20112;-69
2023/06/09 10:40:24;;;;;;;8.40;4.80;;;24.70;99.90;;;;;;5306877;28;20444;-69
2023/06/09 10:43:07;;;;;;;5.78;5.15;;;24.70;99.90;;;;;;5289131;28;20051;-69
2023/06/09 10:45:50;;;;;;;11.48;6.25;;;24.50;99.90;;;;;;5306675;28;20023;-69
2023/06/09 10:48:54;;;;;;;5.47;4.97;;;24.60;99.90;;;;;;5306559;28;20035;-70
2023/06/09 10:51:28;;;;;;;6.28;5.38;;;24.50;99.90;;;;;;5250915;28;20028;-69
2023/06/09 10:54:12;;;;;;;5.88;5.28;;;24.70;99.90;;;;;;5306502;28;20072;-69
2023/06/09 10:56:46;;;;;;;6.15;5.57;;;25.00;99.90;;;;;;5306297;28;20031;-70
2023/06/09 10:59:26;;;;;;;5.82;5.32;;;25.00;99.90;;;;;;5297810;28;20063;-68
2023/06/09 11:02:02;;;;;;;6.18;5.10;;;25.20;99.90;;;;;;5292081;28;20019;-67
2023/06/09 11:04:45;;;;;;;10.52;9.68;;;25.30;99.90;;;;;;5291968;28;20356;-67
2023/06/09 11:07:18;;;;;;;12.13;4.85;;;25.20;99.90;;;;;;5291934;28;20608;-68
2023/06/09 11:09:49;;;;;;;9.52;4.85;;;25.70;99.90;;;;;;5291763;28;20024;-68
2023/06/09 11:12:38;;;;;;;7.38;6.50;;;25.70;99.90;;;;;;5291913;28;20024;-67
2023/06/09 11:15:10;;;;;;;6.72;4.45;;;25.10;99.90;;;;;;5291722;28;20110;-69
2023/06/09 11:17:42;;;;;;;8.93;4.05;;;25.10;99.90;;;;;;5291518;28;20042;-70
2023/06/09 11:20:15;;;;;;;5.78;4.30;;;25.60;99.90;;;;;;5291732;28;20417;-69
2023/06/09 11:22:47;;;;;;;6.32;5.05;;;25.70;99.90;;;;;;5291667;28;20028;-69
2023/06/09 11:25:18;;;;;;;5.68;4.57;;;25.60;99.90;;;;;;5291468;28;20027;-70
2023/06/09 11:27:55;;;;;;;4.75;4.22;;;25.90;99.90;;;;;;5291366;28;20759;-69
2023/06/09 11:30:29;;;;;;;5.45;4.93;;;25.60;99.90;;;;;;5291357;28;20031;-70
2023/06/09 11:33:04;;;;;;;8.13;4.97;;;25.80;99.90;;;;;;5291564;28;20076;-69
2023/06/09 11:35:43;;;;;;;7.63;4.20;;;25.00;99.90;;;;;;5291305;28;20080;-69
2023/06/09 11:38:22;;;;;;;5.87;4.60;;;25.40;99.90;;;;;;5291289;28;20031;-69
2023/06/09 11:40:55;;;;;;;7.75;4.82;;;25.10;99.90;;;;;;5291447;28;20447;-69
2023/06/09 11:43:26;;;;;;;4.47;4.03;;;25.40;99.90;;;;;;5291259;28;20054;-70
2023/06/09 11:46:01;;;;;;;7.93;6.22;;;25.40;99.90;;;;;;5291220;28;20362;-70
2023/06/09 11:48:32;;;;;;;6.40;3.67;;;25.70;99.90;;;;;;5291058;28;20063;-69
2023/06/09 11:51:03;;;;;;;7.85;4.60;;;25.70;99.90;;;;;;5291046;28;20089;-69
2023/06/09 11:53:34;;;;;;;72.78;67.40;;;25.90;99.90;;;;;;5291066;28;20027;-69
2023/06/09 11:56:06;;;;;;;13.07;12.05;;;25.60;99.90;;;;;;5290987;28;20020;-70
2023/06/09 11:58:36;;;;;;;9.93;4.32;;;25.30;99.90;;;;;;5290642;28;20414;-70
2023/06/09 12:01:07;;;;;;;5.82;4.30;;;25.50;99.90;;;;;;5290899;28;20026;-70
2023/06/09 12:03:38;;;;;;;6.15;4.38;;;25.50;99.90;;;;;;5291238;28;20020;-69
2023/06/09 12:06:09;;;;;;;5.03;4.53;;;25.50;99.90;;;;;;5290804;28;20160;-69
2023/06/09 12:08:41;;;;;;;6.40;4.78;;;25.70;99.90;;;;;;5290705;28;20040;-69
2023/06/09 12:11:18;;;;;;;5.32;4.60;;;25.80;99.90;;;;;;5289672;28;20459;-69
2023/06/09 12:13:49;;;;;;;6.38;4.68;;;25.70;99.90;;;;;;5290807;28;20588;-70
2023/06/09 12:16:23;;;;;;;6.43;4.78;;;25.70;99.90;;;;;;5290618;28;20090;-70
2023/06/09 12:18:54;;;;;;;7.95;5.00;;;25.90;99.90;;;;;;5290361;28;20031;-70
2023/06/09 12:21:25;;;;;;;6.30;5.70;;;25.90;99.90;;;;;;5290448;28;20024;-69
2023/06/09 12:23:56;;;;;;;5.22;4.72;;;25.70;99.90;;;;;;5290516;28;20498;-70
2023/06/09 12:26:40;;;;;;;5.60;5.10;;;25.70;99.90;;;;;;5290249;28;20047;-70
2023/06/09 12:29:11;;;;;;;5.07;4.57;;;25.40;99.90;;;;;;5290358;28;20040;-69
2023/06/09 12:31:46;;;;;;;64.80;59.45;;;25.70;99.90;;;;;;5290321;28;20475;-69
2023/06/09 12:34:25;;;;;;;6.50;5.10;;;25.50;99.90;;;;;;5290213;28;20019;-68
2023/06/09 12:36:58;;;;;;;5.63;5.13;;;25.40;99.90;;;;;;5290329;28;20020;-69
2023/06/09 12:39:32;;;;;;;7.78;5.32;;;25.80;99.90;;;;;;5290063;28;20479;-69
2023/06/09 12:42:13;;;;;;;6.43;4.25;;;25.80;99.90;;;;;;5289914;28;20068;-70
2023/06/09 12:44:48;;;;;;;6.47;5.13;;;25.60;99.90;;;;;;5289962;28;20072;-70
2023/06/09 12:47:20;;;;;;;8.93;4.13;;;25.70;99.90;;;;;;5290004;28;20043;-69
2023/06/09 12:49:51;;;;;;;6.93;4.88;;;25.80;99.90;;;;;;5271355;28;20047;-70
2023/06/09 12:52:22;;;;;;;6.38;4.47;;;25.80;99.90;;;;;;5289759;28;20058;-69
2023/06/09 12:54:53;;;;;;;17.58;4.63;;;25.90;99.90;;;;;;5289628;28;20019;-68
2023/06/09 12:57:23;;;;;;;5.82;5.30;;;25.90;99.90;;;;;;5289366;28;20051;-69
2023/06/09 12:59:54;;;;;;;9.40;4.28;;;25.90;99.90;;;;;;5289631;28;20036;-69
2023/06/09 13:02:25;;;;;;;4.18;3.85;;;25.60;99.90;;;;;;5289566;28;20028;-69
2023/06/09 13:04:58;;;;;;;7.00;3.95;;;25.70;99.90;;;;;;5289565;28;20027;-70
2023/06/09 13:07:29;;;;;;;5.22;4.57;;;25.80;99.90;;;;;;5289540;28;20031;-70
2023/06/09 13:10:00;;;;;;;8.48;6.43;;;25.90;99.90;;;;;;5289445;28;20018;-69
2023/06/09 13:12:31;;;;;;;5.57;4.40;;;25.80;99.90;;;;;;5289634;28;20028;-70
2023/06/09 13:15:03;;;;;;;5.72;4.45;;;25.90;99.90;;;;;;5289382;28;20072;-70